• Join FlightAware (Why Join?)
  • Login
  • US Flag 
04:55AM EDT


 

Airport Tracker/Info


-or-


 

Live Flight TrackerFlight Track Log ✈ AWI3780 ✈ 16-Aug-2013 ✈ KBTV - KPHL

Flight Track Log - Related Links

Times and Time Zones

All times are in EDT time to prevent confusion due to time zone crossing. See the AWI3780 flight status page for this flight to view local times or setup timezone preferences in your user account.

Time Position Orientation Groundspeed Altitude Reporting Facility
EDT Latitude Longitude Course Direction KTS MPH feet Rate Location/Type
03:53PM 44.1733 -73.2574 196° South  Level FlightAware Approximate
03:54PM 44.0758 -73.2964 196° South  Level FlightAware Approximate
03:54PM 44.2483 -73.2022 197° South 286 329 8,600  Level Boston Center
03:55PM 43.9783 -73.3354 196° South  Level FlightAware Approximate
03:55PM 44.1586 -73.2389 196° South 286 329 11,300  Level Boston Center
03:56PM 43.8807 -73.3738 195° South  Level FlightAware Approximate
03:56PM 44.0769 -73.2753 198° South 296 341 13,500  Level Boston Center
03:57PM 43.7827 -73.4100 195° South  Level FlightAware Approximate
03:57PM 43.9892 -73.3144 198° South 317 365 15,500  Level Boston Center
03:58PM 43.6846 -73.4462 195° South  Level FlightAware Approximate
03:58PM 43.9178 -73.3825 214° Southwest 317 365 17,500  Level Boston Center
03:59PM 43.8400 -73.4533 213° Southwest 335 386 18,900 1,440 Climbing Boston Center
04:00PM 43.7644 -73.5267 215° Southwest 335 386 20,400 1,320 Climbing Boston Center
04:01PM 43.7014 -73.5858 214° Southwest 335 386 21,500 1,260 Climbing Boston Center
04:02PM 43.6108 -73.6644 212° Southwest 343 395 22,900 1,200 Climbing Boston Center
04:03PM 43.5308 -73.7403 215° Southwest 354 407 24,200 1,320 Climbing Boston Center
04:04PM 43.4339 -73.8267 213° Southwest 354 407 25,900 840 Climbing Boston Center
04:05PM 43.3456 -73.9103 215° Southwest 354 407 26,000  Climbing Boston Center
04:06PM 43.2631 -73.9883 215° Southwest 354 407 26,000  Level Boston Center
04:07PM 43.1789 -74.0600 212° Southwest 354 407 26,000  Level Boston Center
04:08PM 43.0986 -74.1347 214° Southwest 354 407 26,000  Level Boston Center
04:09PM 43.0181 -74.2092 214° Southwest 354 407 26,000  Level Boston Center
04:10PM 42.9400 -74.2808 214° Southwest 354 407 26,000  Level Boston Center
04:11PM 42.8572 -74.3575 214° Southwest 354 407 26,000  Level Boston Center
04:12PM 42.7769 -74.4258 212° Southwest 354 407 26,000  Level Boston Center
04:13PM 42.6964 -74.4994 214° Southwest 354 407 26,000  Level Boston Center
04:14PM 42.6139 -74.5758 214° Southwest 354 407 26,000  Level Boston Center
04:15PM 42.5333 -74.6464 213° Southwest 354 407 26,000  Level Boston Center
04:16PM 42.4506 -74.7194 213° Southwest 354 407 26,000  Level Boston Center
04:17PM 42.3678 -74.7922 213° Southwest 354 407 26,000 -60 Level Boston Center
04:18PM 42.2869 -74.8650 214° Southwest 354 407 25,900 -720 Descending Boston Center
04:20PM 42.1611 -74.9731 212° Southwest 343 395 24,300 -1,740 Descending New York Center
04:21PM 42.0756 -75.0428 211° Southwest 353 406 21,600 -2,400 Descending New York Center
04:22PM 41.9939 -75.1131 213° Southwest 353 406 19,500 -1,320 Descending New York Center
04:23PM 41.9122 -75.1800 211° Southwest 353 406 19,000 -420 Descending New York Center
04:24PM 41.8372 -75.2364 209° Southwest 348 400 18,700 -900 Descending New York Center
04:25PM 41.7492 -75.3111 212° Southwest 348 400 17,200 -1,500 Descending New York Center
04:26PM 41.6717 -75.3725 211° Southwest 348 400 15,700 -1,500 Descending New York Center
04:27PM 41.5944 -75.4364 212° Southwest 348 400 14,300 -1,500 Descending New York Center
04:28PM 41.5236 -75.4897 209° Southwest 333 383 12,800 -1,200 Descending New York Center
04:29PM 41.4481 -75.5536 212° Southwest 327 376 12,000 -420 Descending New York Center
04:30PM 41.3664 -75.6169 210° Southwest 327 376 12,000  Level New York Center
04:31PM 41.2953 -75.6725 210° Southwest 327 376 12,000 -60 Level New York Center
04:32PM 41.2008 -75.6906 188° South 305 351 11,900 -600 Descending New York Center
04:33PM 41.1114 -75.6894 179° South 311 358 10,900 -960 Descending New York Center
04:34PM 41.0322 -75.6892 180° South 321 369 10,000 -480 Descending New York Center
04:35PM 40.9425 -75.6883 180° South 327 376 10,000  Level New York Center
04:36PM 40.8447 -75.6867 179° South 327 376 10,000  Level New York Center
04:37PM 40.7667 -75.6564 164° South 314 361 10,000  Level New York Center
04:38PM 40.6958 -75.6075 152° Southeast 293 337 10,000  Level New York Center
04:39PM 40.6231 -75.5531 150° Southeast 293 337 10,000  Level New York Center
04:40PM 40.5500 -75.5044 153° Southeast 299 344 10,000 -240 Level New York Center
04:41PM 40.4769 -75.4531 152° Southeast 299 344 9,600 -720 Descending New York Center
04:42PM 40.4122 -75.4078 152° Southeast 299 344 8,600 -1,020 Descending New York Center
04:43PM 40.3433 -75.3567 151° Southeast 299 344 7,600 -1,440 Descending New York Center
04:44PM 40.2703 -75.3056 152° Southeast 282 325 5,800 -1,500 Descending New York Center
04:45PM 40.2006 -75.2711 159° South 275 316 4,700 -900 Descending New York Center
04:46PM 40.1431 -75.2539 167° South 249 287 4,000 -360 Descending New York Center
04:47PM 40.0811 -75.2364 168° South 217 250 4,000  Level New York Center
04:48PM 40.0319 -75.2169 163° South 212 244 4,000  Level New York Center
04:49PM 39.9744 -75.1942 163° South 205 236 4,000  Level New York Center
04:50PM 39.9250 -75.1750 163° South 200 230 4,000  Level New York Center
04:51PM 39.8653 -75.1550 166° South 205 236 4,000  Level New York Center
04:52PM 39.8161 -75.1356 163° South 205 236 4,000 -120 Level New York Center
04:53PM 39.7581 -75.1239 171° South 199 229 3,800 -780 Descending New York Center
04:54PM 39.7667 -75.1833 281° West 181 208 2,400 -1,260 Descending Philadelphia TRACON
04:55PM 39.8167 -75.2000 346° North 150 173 1,200 -960 Descending Philadelphia TRACON
04:56PM 39.8500 -75.2167 339° North 150 173 500 -720 Descending Philadelphia TRACON